PWSweather.com
Personal Weather Stations
Station Observations
UXOLA
Alcoy, AlcoyES

AlcoyAlcoyES

Lat: 38.70299, Lon: -0.48184

Elevation: 1935

Station Type: PCE FWS-20,

http://www.fiestasalcoy.xyz

High Low Average
Temperature 43.5°F6.4°C 36.3°F2.4°C 38.0°F3.3°C
Dew Point 39.0°F3.9°C 32.1°F0.1°C 34.4°F1.3°C
Winds 5.4 mph 8.7 kmh Calm Calm 2.0 mph SE3.2 kmh SE
Wind Gusts 9.8 mph15.8 kmh 0.7 mph1.1 kmh 4.0 mph6.4 kmh
Humidity 92% 81% 87%
Pressure 30.06 in1017.9 mb 29.15 in987.1 mb -
Precipitation 0.44 in11.2 mm - -
Hour Temp Dew Point Humidity Winds Wind Gusts Pressure Precip Precip Rate Daily Precip Total
12:00 AM 43.5°F6.4°C 39.0°F3.9°C 84% 0.7 mph E1.1 kmh E 4.5 mph7.2 kmh 29.15 in987.1 mb 0.00 in0.0 mm 0.00 in0.0 mm 0.00 in0.0 mm
12:15 AM 37.6°F3.1°C 34.9°F1.6°C 90% Calm Calm 2.2 mph3.5 kmh 29.98 in1015.2 mb 0.39 in9.9 mm 1.56 in39.6 mm 0.39 in9.9 mm
12:30 AM 37.4°F3.0°C 34.5°F1.4°C 89% 1.6 mph NW2.6 kmh NW 2.2 mph3.5 kmh 29.98 in1015.2 mb 0.39 in9.9 mm 0.00 in0.0 mm 0.39 in9.9 mm
12:45 AM 37.8°F3.2°C 35.1°F1.7°C 90% 1.6 mph E2.6 kmh E 3.1 mph5.0 kmh 29.98 in1015.2 mb 0.39 in9.9 mm 0.00 in0.0 mm 0.39 in9.9 mm
01:00 AM 37.9°F3.3°C 35.3°F1.8°C 90% 1.6 mph NE2.6 kmh NE 3.1 mph5.0 kmh 29.98 in1015.2 mb 0.00 in0.0 mm 0.00 in0.0 mm 0.39 in9.9 mm
01:15 AM 37.8°F3.2°C 35.4°F1.9°C 91% 2.2 mph ENE3.5 kmh ENE 3.8 mph6.1 kmh 29.98 in1015.2 mb 0.00 in0.0 mm 0.00 in0.0 mm 0.39 in9.9 mm
01:30 AM 37.6°F3.1°C 35.2°F1.8°C 91% 0.7 mph ENE1.1 kmh ENE 3.8 mph6.1 kmh 29.97 in1014.9 mb 0.00 in0.0 mm 0.00 in0.0 mm 0.39 in9.9 mm
01:45 AM 37.6°F3.1°C 35.2°F1.8°C 91% 0.7 mph E1.1 kmh E 1.6 mph2.6 kmh 29.97 in1014.9 mb 0.00 in0.0 mm 0.00 in0.0 mm 0.39 in9.9 mm
02:00 AM 37.4°F3.0°C 35.0°F1.7°C 91% 0.7 mph ENE1.1 kmh ENE 3.1 mph5.0 kmh 29.97 in1014.9 mb 0.00 in0.0 mm 0.00 in0.0 mm 0.39 in9.9 mm
02:15 AM 37.4°F3.0°C 35.0°F1.7°C 91% 2.2 mph E3.5 kmh E 3.1 mph5.0 kmh 29.96 in1014.6 mb 0.00 in0.0 mm 0.00 in0.0 mm 0.39 in9.9 mm
02:30 AM 37.2°F2.9°C 34.8°F1.6°C 91% 2.2 mph ENE3.5 kmh ENE 3.8 mph6.1 kmh 29.97 in1014.9 mb 0.00 in0.0 mm 0.00 in0.0 mm 0.39 in9.9 mm
02:45 AM 37.2°F2.9°C 34.8°F1.6°C 91% Calm Calm 1.6 mph2.6 kmh 29.97 in1014.9 mb 0.00 in0.0 mm 0.00 in0.0 mm 0.39 in9.9 mm
03:00 AM 37.4°F3.0°C 35.0°F1.7°C 91% 2.2 mph ENE3.5 kmh ENE 3.1 mph5.0 kmh 29.97 in1014.9 mb 0.00 in0.0 mm 0.00 in0.0 mm 0.39 in9.9 mm
03:15 AM 37.2°F2.9°C 34.8°F1.6°C 91% 1.6 mph ENE2.6 kmh ENE 2.2 mph3.5 kmh 29.96 in1014.6 mb 0.00 in0.0 mm 0.00 in0.0 mm 0.39 in9.9 mm
03:30 AM 37.2°F2.9°C 35.1°F1.7°C 92% Calm Calm 3.1 mph5.0 kmh 29.96 in1014.6 mb 0.00 in0.0 mm 0.00 in0.0 mm 0.39 in9.9 mm
03:45 AM 37.4°F3.0°C 35.3°F1.8°C 92% 1.6 mph WSW2.6 kmh WSW 3.1 mph5.0 kmh 29.96 in1014.6 mb 0.00 in0.0 mm 0.00 in0.0 mm 0.39 in9.9 mm
04:00 AM 36.9°F2.7°C 34.5°F1.4°C 91% 3.1 mph W5.0 kmh W 5.4 mph8.7 kmh 29.96 in1014.6 mb 0.01 in0.3 mm 0.01 in0.3 mm 0.40 in10.2 mm
04:15 AM 36.7°F2.6°C 34.0°F1.1°C 90% 3.1 mph WSW5.0 kmh WSW 4.5 mph7.2 kmh 29.95 in1014.2 mb 0.01 in0.3 mm 0.00 in0.0 mm 0.40 in10.2 mm
04:30 AM 36.9°F2.7°C 33.6°F0.9°C 88% 3.1 mph WSW5.0 kmh WSW 6.0 mph9.7 kmh 29.95 in1014.2 mb 0.01 in0.3 mm 0.00 in0.0 mm 0.40 in10.2 mm
04:45 AM 36.9°F2.7°C 33.6°F0.9°C 88% 3.1 mph SW5.0 kmh SW 5.4 mph8.7 kmh 29.95 in1014.2 mb 0.02 in0.5 mm 0.04 in1.0 mm 0.41 in10.4 mm
05:00 AM 36.7°F2.6°C 33.2°F0.7°C 87% 2.2 mph WSW3.5 kmh WSW 6.0 mph9.7 kmh 29.95 in1014.2 mb 0.02 in0.5 mm 0.00 in0.0 mm 0.43 in10.9 mm
05:15 AM 36.5°F2.5°C 33.0°F0.6°C 87% 1.6 mph WSW2.6 kmh WSW 4.5 mph7.2 kmh 29.95 in1014.2 mb 0.02 in0.5 mm 0.00 in0.0 mm 0.43 in10.9 mm
05:30 AM 36.5°F2.5°C 33.0°F0.6°C 87% 3.8 mph WSW6.1 kmh WSW 5.4 mph8.7 kmh 29.95 in1014.2 mb 0.02 in0.5 mm 0.00 in0.0 mm 0.43 in10.9 mm
05:45 AM 36.5°F2.5°C 33.0°F0.6°C 87% 3.1 mph SW5.0 kmh SW 5.4 mph8.7 kmh 29.95 in1014.2 mb 0.01 in0.3 mm 0.00 in0.0 mm 0.43 in10.9 mm
06:00 AM 36.5°F2.5°C 33.0°F0.6°C 87% 3.8 mph WSW6.1 kmh WSW 4.5 mph7.2 kmh 29.95 in1014.2 mb 0.00 in0.0 mm 0.00 in0.0 mm 0.43 in10.9 mm
06:15 AM 36.5°F2.5°C 32.7°F0.4°C 86% 2.2 mph SW3.5 kmh SW 5.4 mph8.7 kmh 29.95 in1014.2 mb 0.00 in0.0 mm 0.00 in0.0 mm 0.43 in10.9 mm
06:30 AM 36.3°F2.4°C 32.3°F0.2°C 85% 3.8 mph WSW6.1 kmh WSW 6.9 mph11.1 kmh 29.94 in1013.9 mb 0.00 in0.0 mm 0.00 in0.0 mm 0.43 in10.9 mm
06:45 AM 36.5°F2.5°C 32.4°F0.2°C 85% 2.2 mph SW3.5 kmh SW 6.0 mph9.7 kmh 29.94 in1013.9 mb 0.00 in0.0 mm 0.00 in0.0 mm 0.43 in10.9 mm
07:00 AM 36.5°F2.5°C 32.4°F0.2°C 85% 2.2 mph WSW3.5 kmh WSW 6.9 mph11.1 kmh 29.94 in1013.9 mb 0.00 in0.0 mm 0.00 in0.0 mm 0.43 in10.9 mm
07:15 AM 36.5°F2.5°C 32.4°F0.2°C 85% 1.6 mph WSW2.6 kmh WSW 5.4 mph8.7 kmh 29.94 in1013.9 mb 0.00 in0.0 mm 0.00 in0.0 mm 0.43 in10.9 mm
07:30 AM 36.5°F2.5°C 32.4°F0.2°C 85% 0.7 mph WSW1.1 kmh WSW 3.1 mph5.0 kmh 29.94 in1013.9 mb 0.00 in0.0 mm 0.00 in0.0 mm 0.43 in10.9 mm
07:45 AM 36.5°F2.5°C 32.4°F0.2°C 85% 3.1 mph WSW5.0 kmh WSW 4.5 mph7.2 kmh 29.94 in1013.9 mb 0.00 in0.0 mm 0.00 in0.0 mm 0.43 in10.9 mm
08:00 AM 36.5°F2.5°C 32.1°F0.1°C 84% 1.6 mph WSW2.6 kmh WSW 6.0 mph9.7 kmh 29.94 in1013.9 mb 0.00 in0.0 mm 0.00 in0.0 mm 0.43 in10.9 mm
08:15 AM 36.7°F2.6°C 32.3°F0.2°C 84% 4.5 mph WSW7.2 kmh WSW 5.4 mph8.7 kmh 29.95 in1014.2 mb 0.00 in0.0 mm 0.00 in0.0 mm 0.43 in10.9 mm
08:30 AM 36.9°F2.7°C 32.5°F0.3°C 84% 1.6 mph E2.6 kmh E 3.1 mph5.0 kmh 29.95 in1014.2 mb 0.00 in0.0 mm 0.00 in0.0 mm 0.43 in10.9 mm
08:45 AM 36.9°F2.7°C 32.8°F0.4°C 85% 1.6 mph ENE2.6 kmh ENE 2.2 mph3.5 kmh 29.95 in1014.2 mb 0.00 in0.0 mm 0.00 in0.0 mm 0.43 in10.9 mm
09:00 AM 37.0°F2.8°C 33.3°F0.7°C 86% Calm Calm 0.7 mph1.1 kmh 29.95 in1014.2 mb 0.00 in0.0 mm 0.00 in0.0 mm 0.43 in10.9 mm
09:15 AM 37.4°F3.0°C 33.6°F0.9°C 86% 2.2 mph ENE3.5 kmh ENE 4.5 mph7.2 kmh 29.96 in1014.6 mb 0.00 in0.0 mm 0.00 in0.0 mm 0.43 in10.9 mm
09:30 AM 37.8°F3.2°C 34.0°F1.1°C 86% Calm Calm 2.2 mph3.5 kmh 29.96 in1014.6 mb 0.00 in0.0 mm 0.00 in0.0 mm 0.43 in10.9 mm
09:45 AM 37.8°F3.2°C 34.0°F1.1°C 86% Calm Calm 2.2 mph3.5 kmh 29.96 in1014.6 mb 0.00 in0.0 mm 0.00 in0.0 mm 0.43 in10.9 mm
10:00 AM 37.8°F3.2°C 34.0°F1.1°C 86% 0.7 mph E1.1 kmh E 2.2 mph3.5 kmh 29.96 in1014.6 mb 0.00 in0.0 mm 0.00 in0.0 mm 0.43 in10.9 mm
10:15 AM 37.9°F3.3°C 33.8°F1.0°C 85% 2.2 mph NE3.5 kmh NE 3.8 mph6.1 kmh 29.96 in1014.6 mb 0.00 in0.0 mm 0.00 in0.0 mm 0.43 in10.9 mm
10:30 AM 37.9°F3.3°C 34.1°F1.2°C 86% 1.6 mph ENE2.6 kmh ENE 4.5 mph7.2 kmh 29.96 in1014.6 mb 0.00 in0.0 mm 0.00 in0.0 mm 0.43 in10.9 mm
10:45 AM 37.8°F3.2°C 34.0°F1.1°C 86% 3.1 mph E5.0 kmh E 4.5 mph7.2 kmh 29.97 in1014.9 mb 0.00 in0.0 mm 0.00 in0.0 mm 0.43 in10.9 mm
11:00 AM 37.9°F3.3°C 34.4°F1.3°C 87% 2.2 mph E3.5 kmh E 3.1 mph5.0 kmh 29.97 in1014.9 mb 0.00 in0.0 mm 0.00 in0.0 mm 0.43 in10.9 mm
11:15 AM 38.3°F3.5°C 34.8°F1.6°C 87% 0.7 mph E1.1 kmh E 4.5 mph7.2 kmh 29.98 in1015.2 mb 0.00 in0.0 mm 0.00 in0.0 mm 0.43 in10.9 mm
11:30 AM 38.3°F3.5°C 34.8°F1.6°C 87% 4.5 mph ENE7.2 kmh ENE 6.0 mph9.7 kmh 29.98 in1015.2 mb 0.00 in0.0 mm 0.00 in0.0 mm 0.43 in10.9 mm
11:45 AM 38.3°F3.5°C 35.1°F1.7°C 88% 2.2 mph ENE3.5 kmh ENE 7.6 mph12.2 kmh 29.99 in1015.6 mb 0.00 in0.0 mm 0.00 in0.0 mm 0.43 in10.9 mm
12:00 PM 38.3°F3.5°C 35.1°F1.7°C 88% 2.2 mph ENE3.5 kmh ENE 5.4 mph8.7 kmh 29.98 in1015.2 mb 0.00 in0.0 mm 0.00 in0.0 mm 0.43 in10.9 mm
12:15 PM 38.7°F3.7°C 35.7°F2.1°C 89% 1.6 mph E2.6 kmh E 4.5 mph7.2 kmh 29.98 in1015.2 mb 0.00 in0.0 mm 0.00 in0.0 mm 0.43 in10.9 mm
12:30 PM 38.7°F3.7°C 35.7°F2.1°C 89% 3.1 mph ENE5.0 kmh ENE 3.8 mph6.1 kmh 29.98 in1015.2 mb 0.00 in0.0 mm 0.00 in0.0 mm 0.43 in10.9 mm
12:45 PM 38.5°F3.6°C 35.0°F1.7°C 87% 0.7 mph NW1.1 kmh NW 5.4 mph8.7 kmh 29.98 in1015.2 mb 0.00 in0.0 mm 0.00 in0.0 mm 0.43 in10.9 mm
01:00 PM 38.7°F3.7°C 35.1°F1.7°C 87% Calm Calm 3.8 mph6.1 kmh 29.97 in1014.9 mb 0.00 in0.0 mm 0.00 in0.0 mm 0.43 in10.9 mm
01:15 PM 39.2°F4.0°C 35.4°F1.9°C 86% 2.2 mph ENE3.5 kmh ENE 4.5 mph7.2 kmh 29.97 in1014.9 mb 0.00 in0.0 mm 0.00 in0.0 mm 0.43 in10.9 mm
01:30 PM 39.2°F4.0°C 35.7°F2.1°C 87% 3.1 mph NE5.0 kmh NE 5.4 mph8.7 kmh 29.97 in1014.9 mb 0.00 in0.0 mm 0.00 in0.0 mm 0.43 in10.9 mm
01:45 PM 39.2°F4.0°C 36.0°F2.2°C 88% 3.1 mph ENE5.0 kmh ENE 4.5 mph7.2 kmh 29.97 in1014.9 mb 0.00 in0.0 mm 0.00 in0.0 mm 0.43 in10.9 mm
02:00 PM 39.4°F4.1°C 36.4°F2.4°C 89% 4.5 mph E7.2 kmh E 6.0 mph9.7 kmh 29.96 in1014.6 mb 0.00 in0.0 mm 0.00 in0.0 mm 0.43 in10.9 mm
02:15 PM 39.4°F4.1°C 36.4°F2.4°C 89% 3.1 mph E5.0 kmh E 6.0 mph9.7 kmh 29.96 in1014.6 mb 0.00 in0.0 mm 0.00 in0.0 mm 0.43 in10.9 mm
02:30 PM 39.6°F4.2°C 36.6°F2.6°C 89% 0.7 mph E1.1 kmh E 4.5 mph7.2 kmh 29.96 in1014.6 mb 0.00 in0.0 mm 0.00 in0.0 mm 0.43 in10.9 mm
02:45 PM 39.7°F4.3°C 36.8°F2.7°C 89% 0.7 mph ESE1.1 kmh ESE 5.4 mph8.7 kmh 29.95 in1014.2 mb 0.00 in0.0 mm 0.00 in0.0 mm 0.43 in10.9 mm
03:00 PM 39.9°F4.4°C 36.4°F2.4°C 87% 3.1 mph NE5.0 kmh NE 4.5 mph7.2 kmh 29.95 in1014.2 mb 0.00 in0.0 mm 0.00 in0.0 mm 0.43 in10.9 mm
03:15 PM 40.1°F4.5°C 35.7°F2.1°C 84% 2.2 mph NE3.5 kmh NE 6.0 mph9.7 kmh 29.95 in1014.2 mb 0.00 in0.0 mm 0.00 in0.0 mm 0.43 in10.9 mm
03:30 PM 40.3°F4.6°C 35.5°F1.9°C 83% 1.6 mph E2.6 kmh E 6.9 mph11.1 kmh 29.94 in1013.9 mb 0.00 in0.0 mm 0.00 in0.0 mm 0.43 in10.9 mm
03:45 PM 40.5°F4.7°C 35.4°F1.9°C 82% 1.6 mph ENE2.6 kmh ENE 6.0 mph9.7 kmh 29.94 in1013.9 mb 0.00 in0.0 mm 0.00 in0.0 mm 0.43 in10.9 mm
04:00 PM 40.5°F4.7°C 35.1°F1.7°C 81% 1.6 mph NNW2.6 kmh NNW 4.5 mph7.2 kmh 29.95 in1014.2 mb 0.00 in0.0 mm 0.00 in0.0 mm 0.43 in10.9 mm
04:15 PM 40.3°F4.6°C 34.9°F1.6°C 81% 0.7 mph ENE1.1 kmh ENE 6.9 mph11.1 kmh 29.95 in1014.2 mb 0.00 in0.0 mm 0.00 in0.0 mm 0.43 in10.9 mm
04:30 PM 40.3°F4.6°C 34.9°F1.6°C 81% 3.8 mph NE6.1 kmh NE 6.9 mph11.1 kmh 29.96 in1014.6 mb 0.00 in0.0 mm 0.00 in0.0 mm 0.43 in10.9 mm
04:45 PM 39.7°F4.3°C 35.0°F1.7°C 83% 3.8 mph ENE6.1 kmh ENE 6.0 mph9.7 kmh 29.95 in1014.2 mb 0.00 in0.0 mm 0.00 in0.0 mm 0.43 in10.9 mm
05:00 PM 39.4°F4.1°C 35.3°F1.8°C 85% 0.7 mph ENE1.1 kmh ENE 2.2 mph3.5 kmh 29.96 in1014.6 mb 0.00 in0.0 mm 0.00 in0.0 mm 0.43 in10.9 mm
05:15 PM 39.2°F4.0°C 35.7°F2.1°C 87% 1.6 mph E2.6 kmh E 5.4 mph8.7 kmh 29.96 in1014.6 mb 0.00 in0.0 mm 0.00 in0.0 mm 0.43 in10.9 mm
05:30 PM 39.0°F3.9°C 35.8°F2.1°C 88% 0.7 mph S1.1 kmh S 4.5 mph7.2 kmh 29.96 in1014.6 mb 0.00 in0.0 mm 0.00 in0.0 mm 0.43 in10.9 mm
05:45 PM 39.0°F3.9°C 36.1°F2.3°C 89% 1.6 mph E2.6 kmh E 3.1 mph5.0 kmh 29.97 in1014.9 mb 0.00 in0.0 mm 0.00 in0.0 mm 0.43 in10.9 mm
06:00 PM 38.8°F3.8°C 35.9°F2.2°C 89% 1.6 mph ENE2.6 kmh ENE 3.8 mph6.1 kmh 29.97 in1014.9 mb 0.00 in0.0 mm 0.00 in0.0 mm 0.43 in10.9 mm
06:15 PM 38.5°F3.6°C 35.2°F1.8°C 88% 3.1 mph E5.0 kmh E 9.8 mph15.8 kmh 29.98 in1015.2 mb 0.00 in0.0 mm 0.00 in0.0 mm 0.43 in10.9 mm
06:30 PM 38.3°F3.5°C 34.8°F1.6°C 87% 2.2 mph NNE3.5 kmh NNE 4.5 mph7.2 kmh 29.97 in1014.9 mb 0.00 in0.0 mm 0.00 in0.0 mm 0.43 in10.9 mm
06:45 PM 38.3°F3.5°C 34.2°F1.2°C 85% 1.6 mph ENE2.6 kmh ENE 8.3 mph13.4 kmh 29.98 in1015.2 mb 0.00 in0.0 mm 0.00 in0.0 mm 0.43 in10.9 mm
07:00 PM 38.5°F3.6°C 34.4°F1.3°C 85% 1.6 mph ESE2.6 kmh ESE 3.8 mph6.1 kmh 29.98 in1015.2 mb 0.00 in0.0 mm 0.00 in0.0 mm 0.43 in10.9 mm
07:15 PM 38.3°F3.5°C 34.5°F1.4°C 86% 1.6 mph E2.6 kmh E 3.1 mph5.0 kmh 30.00 in1015.9 mb 0.00 in0.0 mm 0.00 in0.0 mm 0.43 in10.9 mm
07:30 PM 38.1°F3.4°C 34.6°F1.4°C 87% 0.7 mph E1.1 kmh E 2.2 mph3.5 kmh 30.00 in1015.9 mb 0.00 in0.0 mm 0.00 in0.0 mm 0.43 in10.9 mm
07:45 PM 38.1°F3.4°C 34.9°F1.6°C 88% 3.1 mph E5.0 kmh E 4.5 mph7.2 kmh 30.01 in1016.3 mb 0.00 in0.0 mm 0.00 in0.0 mm 0.43 in10.9 mm
08:00 PM 37.9°F3.3°C 34.7°F1.5°C 88% 2.2 mph NE3.5 kmh NE 3.1 mph5.0 kmh 30.02 in1016.6 mb 0.00 in0.0 mm 0.00 in0.0 mm 0.43 in10.9 mm
08:15 PM 37.8°F3.2°C 34.0°F1.1°C 86% 2.2 mph WSW3.5 kmh WSW 3.8 mph6.1 kmh 30.02 in1016.6 mb 0.00 in0.0 mm 0.00 in0.0 mm 0.43 in10.9 mm
08:30 PM 37.8°F3.2°C 33.7°F0.9°C 85% 2.2 mph W3.5 kmh W 4.5 mph7.2 kmh 30.02 in1016.6 mb 0.00 in0.0 mm 0.00 in0.0 mm 0.43 in10.9 mm
08:45 PM 37.8°F3.2°C 33.4°F0.8°C 84% 1.6 mph W2.6 kmh W 2.2 mph3.5 kmh 30.02 in1016.6 mb 0.00 in0.0 mm 0.00 in0.0 mm 0.43 in10.9 mm
09:00 PM 37.9°F3.3°C 33.5°F0.8°C 84% Calm Calm 2.2 mph3.5 kmh 30.02 in1016.6 mb 0.00 in0.0 mm 0.00 in0.0 mm 0.43 in10.9 mm
09:15 PM 37.9°F3.3°C 33.2°F0.7°C 83% 0.7 mph E1.1 kmh E 2.2 mph3.5 kmh 30.02 in1016.6 mb 0.00 in0.0 mm 0.00 in0.0 mm 0.43 in10.9 mm
09:30 PM 38.1°F3.4°C 33.4°F0.8°C 83% 2.2 mph ENE3.5 kmh ENE 3.8 mph6.1 kmh 30.03 in1016.9 mb 0.00 in0.0 mm 0.00 in0.0 mm 0.43 in10.9 mm
09:45 PM 37.9°F3.3°C 33.2°F0.7°C 83% 1.6 mph E2.6 kmh E 5.4 mph8.7 kmh 30.04 in1017.3 mb 0.00 in0.0 mm 0.00 in0.0 mm 0.43 in10.9 mm
10:00 PM 37.9°F3.3°C 33.2°F0.7°C 83% 1.6 mph ENE2.6 kmh ENE 3.1 mph5.0 kmh 30.04 in1017.3 mb 0.00 in0.0 mm 0.00 in0.0 mm 0.43 in10.9 mm
10:15 PM 37.8°F3.2°C 33.4°F0.8°C 84% Calm Calm 3.1 mph5.0 kmh 30.04 in1017.3 mb 0.00 in0.0 mm 0.00 in0.0 mm 0.43 in10.9 mm
10:30 PM 37.6°F3.1°C 33.2°F0.7°C 84% 0.7 mph ENE1.1 kmh ENE 3.1 mph5.0 kmh 30.05 in1017.6 mb 0.00 in0.0 mm 0.00 in0.0 mm 0.43 in10.9 mm
10:45 PM 37.2°F2.9°C 33.1°F0.6°C 85% Calm Calm 1.6 mph2.6 kmh 30.05 in1017.6 mb 0.00 in0.0 mm 0.00 in0.0 mm 0.43 in10.9 mm
11:00 PM 37.2°F2.9°C 33.4°F0.8°C 86% 2.2 mph E3.5 kmh E 3.8 mph6.1 kmh 30.05 in1017.6 mb 0.00 in0.0 mm 0.00 in0.0 mm 0.43 in10.9 mm
11:15 PM 36.9°F2.7°C 33.4°F0.8°C 87% 2.2 mph E3.5 kmh E 3.8 mph6.1 kmh 30.06 in1017.9 mb 0.00 in0.0 mm 0.00 in0.0 mm 0.43 in10.9 mm
11:30 PM 36.7°F2.6°C 33.5°F0.8°C 88% 3.1 mph E5.0 kmh E 3.8 mph6.1 kmh 30.05 in1017.6 mb 0.01 in0.3 mm 0.04 in1.0 mm 0.44 in11.2 mm
11:45 PM 36.3°F2.4°C 33.4°F0.8°C 89% 5.4 mph E8.7 kmh E 6.9 mph11.1 kmh 30.06 in1017.9 mb 0.01 in0.3 mm 0.00 in0.0 mm 0.44 in11.2 mm